Terminal Aerodrome Forecast
Issued by NWS

Home | Current Version | Previous Version | Text Only | Print | Product List | Glossary On
Versions: 1 2 3 4 5 6 7 8 9 10 11 12
000
FTUS45 KABQ 292320
TAFAEG
TAF
KAEG 292320Z 3000/3024 23011KT P6SM VCSH BKN090 BKN150
      TEMPO 3000/3002 VRB25G34KT -SHRA BKN080
     FM300200 02010KT P6SM SCT110
     FM300900 14011KT P6SM FEW090
     FM301900 15008KT P6SM FEW050 SCT090=

USA.gov is the U.S. government's official web portal to all federal, state and local government web resources and services.